sensor_id;sensor_type;location;lat;lon;timestamp;pressure;altitude;pressure_sealevel;temperature;humidity
23619;BME280;18207;32.078;34.818;2023-02-23T00:01:48;101074.25;;;22.67;39.29
23619;BME280;18207;32.078;34.818;2023-02-23T00:04:19;101065.03;;;22.67;39.46
23619;BME280;18207;32.078;34.818;2023-02-23T00:06:51;101065.41;;;22.65;39.72
23619;BME280;18207;32.078;34.818;2023-02-23T00:09:23;101071.00;;;22.65;39.88
23619;BME280;18207;32.078;34.818;2023-02-23T00:11:56;101066.88;;;22.63;39.66
23619;BME280;18207;32.078;34.818;2023-02-23T00:14:28;101070.84;;;22.62;39.86
23619;BME280;18207;32.078;34.818;2023-02-23T00:16:59;101064.78;;;22.60;39.29
23619;BME280;18207;32.078;34.818;2023-02-23T00:19:29;101065.09;;;22.58;39.69
23619;BME280;18207;32.078;34.818;2023-02-23T00:22:04;101066.25;;;22.57;39.36
23619;BME280;18207;32.078;34.818;2023-02-23T00:24:37;101055.41;;;22.56;39.51
23619;BME280;18207;32.078;34.818;2023-02-23T00:27:10;101049.31;;;22.54;39.33
23619;BME280;18207;32.078;34.818;2023-02-23T00:29:47;101043.22;;;22.52;39.72
23619;BME280;18207;32.078;34.818;2023-02-23T00:32:18;101043.94;;;22.49;39.67
23619;BME280;18207;32.078;34.818;2023-02-23T00:34:49;101048.25;;;22.46;39.35
23619;BME280;18207;32.078;34.818;2023-02-23T00:37:21;101046.94;;;22.44;39.46
23619;BME280;18207;32.078;34.818;2023-02-23T00:39:54;101046.44;;;22.42;39.33
23619;BME280;18207;32.078;34.818;2023-02-23T00:42:25;101046.78;;;22.41;39.51
23619;BME280;18207;32.078;34.818;2023-02-23T00:44:59;101047.16;;;22.39;39.72
23619;BME280;18207;32.078;34.818;2023-02-23T00:47:39;101047.47;;;22.38;39.61
23619;BME280;18207;32.078;34.818;2023-02-23T00:50:12;101039.41;;;22.36;39.79
23619;BME280;18207;32.078;34.818;2023-02-23T00:52:44;101045.38;;;22.35;39.82
23619;BME280;18207;32.078;34.818;2023-02-23T00:55:17;101040.09;;;22.33;39.61
23619;BME280;18207;32.078;34.818;2023-02-23T00:57:50;101040.09;;;22.33;39.63
23619;BME280;18207;32.078;34.818;2023-02-23T01:00:22;101038.75;;;22.31;39.62
23619;BME280;18207;32.078;34.818;2023-02-23T01:02:55;101037.97;;;22.30;39.61
23619;BME280;18207;32.078;34.818;2023-02-23T01:05:26;101032.69;;;22.29;40.06
23619;BME280;18207;32.078;34.818;2023-02-23T01:07:57;101039.44;;;22.28;39.52
23619;BME280;18207;32.078;34.818;2023-02-23T01:10:30;101037.81;;;22.27;39.73
23619;BME280;18207;32.078;34.818;2023-02-23T01:13:10;101034.53;;;22.25;39.68
23619;BME280;18207;32.078;34.818;2023-02-23T01:15:44;101027.66;;;22.22;39.97
23619;BME280;18207;32.078;34.818;2023-02-23T01:18:17;101026.31;;;22.20;39.99
23619;BME280;18207;32.078;34.818;2023-02-23T01:20:47;101029.47;;;22.18;39.97
23619;BME280;18207;32.078;34.818;2023-02-23T01:23:18;101017.44;;;22.18;39.78
23619;BME280;18207;32.078;34.818;2023-02-23T01:25:51;101016.97;;;22.16;40.21
23619;BME280;18207;32.078;34.818;2023-02-23T01:28:22;101022.59;;;22.16;40.05
23619;BME280;18207;32.078;34.818;2023-02-23T01:30:53;101018.94;;;22.15;39.69
23619;BME280;18207;32.078;34.818;2023-02-23T01:33:26;101011.69;;;22.14;40.21
23619;BME280;18207;32.078;34.818;2023-02-23T01:36:00;101024.91;;;22.14;40.32
23619;BME280;18207;32.078;34.818;2023-02-23T01:38:30;101018.13;;;22.15;40.11
23619;BME280;18207;32.078;34.818;2023-02-23T01:41:03;101015.66;;;22.13;40.20
23619;BME280;18207;32.078;34.818;2023-02-23T01:43:34;101012.06;;;22.13;40.05
23619;BME280;18207;32.078;34.818;2023-02-23T01:46:05;101021.25;;;22.13;39.81
23619;BME280;18207;32.078;34.818;2023-02-23T01:48:38;101012.84;;;22.13;40.05
23619;BME280;18207;32.078;34.818;2023-02-23T01:51:13;101010.06;;;22.13;39.99
23619;BME280;18207;32.078;34.818;2023-02-23T01:53:53;101012.84;;;22.13;40.41
23619;BME280;18207;32.078;34.818;2023-02-23T01:56:32;101010.06;;;22.13;40.10
23619;BME280;18207;32.078;34.818;2023-02-23T01:59:07;101014.03;;;22.12;40.18
23619;BME280;18207;32.078;34.818;2023-02-23T02:01:39;101011.25;;;22.12;40.27
23619;BME280;18207;32.078;34.818;2023-02-23T02:04:12;101017.66;;;22.13;40.30
23619;BME280;18207;32.078;34.818;2023-02-23T02:06:49;101014.84;;;22.13;40.31
23619;BME280;18207;32.078;34.818;2023-02-23T02:09:22;101012.84;;;22.13;40.53
23619;BME280;18207;32.078;34.818;2023-02-23T02:11:57;101015.66;;;22.13;40.07
23619;BME280;18207;32.078;34.818;2023-02-23T02:14:31;101018.81;;;22.12;40.21
23619;BME280;18207;32.078;34.818;2023-02-23T02:17:26;101014.72;;;22.09;40.47
23619;BME280;18207;32.078;34.818;2023-02-23T02:24:29;101000.44;;;22.02;40.31
23619;BME280;18207;32.078;34.818;2023-02-23T02:27:33;100997.97;;;22.01;40.19
23619;BME280;18207;32.078;34.818;2023-02-23T02:30:42;100999.97;;;22.00;40.57
23619;BME280;18207;32.078;34.818;2023-02-23T02:33:57;100999.59;;;22.02;40.21
23619;BME280;18207;32.078;34.818;2023-02-23T02:37:22;100991.56;;;22.00;40.16
23619;BME280;18207;32.078;34.818;2023-02-23T02:40:04;100996.81;;;22.02;40.22
23619;BME280;18207;32.078;34.818;2023-02-23T02:43:00;100997.31;;;22.04;40.61
23619;BME280;18207;32.078;34.818;2023-02-23T02:45:46;100991.34;;;22.05;40.19
23619;BME280;18207;32.078;34.818;2023-02-23T02:48:32;100993.34;;;22.05;40.42
23619;BME280;18207;32.078;34.818;2023-02-23T02:51:12;100991.03;;;22.07;40.26
23619;BME280;18207;32.078;34.818;2023-02-23T02:54:02;100988.56;;;22.05;40.50
23619;BME280;18207;32.078;34.818;2023-02-23T02:56:41;100989.72;;;22.04;40.25
23619;BME280;18207;32.078;34.818;2023-02-23T02:59:16;100982.16;;;22.05;40.32
23619;BME280;18207;32.078;34.818;2023-02-23T03:02:05;100982.47;;;22.03;40.46
23619;BME280;18207;32.078;34.818;2023-02-23T03:04:52;100985.25;;;22.03;40.67
23619;BME280;18207;32.078;34.818;2023-02-23T03:07:46;100983.66;;;22.02;40.26
23619;BME280;18207;32.078;34.818;2023-02-23T03:10:47;100988.41;;;22.02;40.55
23619;BME280;18207;32.078;34.818;2023-02-23T03:13:52;100988.75;;;22.00;40.29
23619;BME280;18207;32.078;34.818;2023-02-23T03:16:55;100994.38;;;22.00;40.76
23619;BME280;18207;32.078;34.818;2023-02-23T03:19:56;100990.72;;;22.00;40.41
23619;BME280;18207;32.078;34.818;2023-02-23T03:22:52;100989.91;;;21.99;40.39
23619;BME280;18207;32.078;34.818;2023-02-23T03:25:55;100989.91;;;21.99;40.55
23619;BME280;18207;32.078;34.818;2023-02-23T03:28:56;100993.53;;;22.00;40.57
23619;BME280;18207;32.078;34.818;2023-02-23T03:31:52;100985.97;;;22.00;40.79
23619;BME280;18207;32.078;34.818;2023-02-23T03:34:45;100996.81;;;22.02;40.44
23619;BME280;18207;32.078;34.818;2023-02-23T03:37:41;100992.06;;;22.02;40.52
23619;BME280;18207;32.078;34.818;2023-02-23T03:40:37;101000.09;;;22.04;40.34
23619;BME280;18207;32.078;34.818;2023-02-23T03:43:33;100990.88;;;22.03;40.67
23619;BME280;18207;32.078;34.818;2023-02-23T03:46:24;100991.69;;;22.04;40.51
23619;BME280;18207;32.078;34.818;2023-02-23T03:49:14;100995.31;;;22.04;40.57
23619;BME280;18207;32.078;34.818;2023-02-23T03:52:11;100997.31;;;22.04;40.72
23619;BME280;18207;32.078;34.818;2023-02-23T03:55:04;100998.44;;;22.03;40.28
23619;BME280;18207;32.078;34.818;2023-02-23T03:57:56;101002.91;;;22.04;40.60
23619;BME280;18207;32.078;34.818;2023-02-23T04:00:52;101002.06;;;22.03;40.70
23619;BME280;18207;32.078;34.818;2023-02-23T04:03:45;101002.06;;;22.03;40.57
23619;BME280;18207;32.078;34.818;2023-02-23T04:06:40;101007.66;;;22.03;40.61
23619;BME280;18207;32.078;34.818;2023-02-23T04:09:30;101019.69;;;22.04;41.11
23619;BME280;18207;32.078;34.818;2023-02-23T04:12:26;101016.53;;;22.05;40.70
23619;BME280;18207;32.078;34.818;2023-02-23T04:15:24;101012.94;;;22.05;40.93
23619;BME280;18207;32.078;34.818;2023-02-23T04:17:58;101018.53;;;22.05;40.59
23619;BME280;18207;32.078;34.818;2023-02-23T04:20:30;101014.56;;;22.06;40.93
23619;BME280;18207;32.078;34.818;2023-02-23T04:23:01;101019.03;;;22.07;40.51
23619;BME280;18207;32.078;34.818;2023-02-23T04:25:31;101019.81;;;22.07;40.48
23619;BME280;18207;32.078;34.818;2023-02-23T04:28:01;101029.03;;;22.08;40.96
23619;BME280;18207;32.078;34.818;2023-02-23T04:30:32;101021.47;;;22.08;40.90
23619;BME280;18207;32.078;34.818;2023-02-23T04:33:05;101029.50;;;22.10;40.59
23619;BME280;18207;32.078;34.818;2023-02-23T04:35:37;101032.66;;;22.08;40.75
23619;BME280;18207;32.078;34.818;2023-02-23T04:38:07;101025.06;;;22.09;40.49
23619;BME280;18207;32.078;34.818;2023-02-23T04:40:38;101020.31;;;22.09;41.15
23619;BME280;18207;32.078;34.818;2023-02-23T04:43:11;101018.31;;;22.10;40.96
23619;BME280;18207;32.078;34.818;2023-02-23T04:45:43;101025.06;;;22.09;40.57
23619;BME280;18207;32.078;34.818;2023-02-23T04:48:15;101023.13;;;22.09;40.93
23619;BME280;18207;32.078;34.818;2023-02-23T04:50:45;101025.06;;;22.09;40.63
23619;BME280;18207;32.078;34.818;2023-02-23T04:53:16;101033.47;;;22.09;41.07
23619;BME280;18207;32.078;34.818;2023-02-23T04:55:46;101031.81;;;22.08;40.63
23619;BME280;18207;32.078;34.818;2023-02-23T04:58:18;101027.41;;;22.07;40.51
23619;BME280;18207;32.078;34.818;2023-02-23T05:00:48;101037.44;;;22.08;41.01
23619;BME280;18207;32.078;34.818;2023-02-23T05:03:20;101041.06;;;22.08;40.85
23619;BME280;18207;32.078;34.818;2023-02-23T05:05:50;101044.66;;;22.09;40.71
23619;BME280;18207;32.078;34.818;2023-02-23T05:08:20;101043.84;;;22.08;41.12
23619;BME280;18207;32.078;34.818;2023-02-23T05:10:51;101046.66;;;22.08;40.94
23619;BME280;18207;32.078;34.818;2023-02-23T05:13:22;101044.66;;;22.09;40.59
23619;BME280;18207;32.078;34.818;2023-02-23T05:15:56;101053.91;;;22.09;40.76
23619;BME280;18207;32.078;34.818;2023-02-23T05:18:28;101063.09;;;22.10;40.57
23619;BME280;18207;32.078;34.818;2023-02-23T05:21:02;101064.25;;;22.09;40.69
23619;BME280;18207;32.078;34.818;2023-02-23T05:23:35;101060.66;;;22.08;41.06
23619;BME280;18207;32.078;34.818;2023-02-23T05:26:10;101069.06;;;22.08;40.98
23619;BME280;18207;32.078;34.818;2023-02-23T05:28:42;101075.00;;;22.07;40.72
23619;BME280;18207;32.078;34.818;2023-02-23T05:31:12;101069.41;;;22.07;40.73
23619;BME280;18207;32.078;34.818;2023-02-23T05:33:46;101079.41;;;22.08;40.72
23619;BME280;18207;32.078;34.818;2023-02-23T05:36:19;101073.81;;;22.08;40.85
23619;BME280;18207;32.078;34.818;2023-02-23T05:38:52;101075.81;;;22.07;40.88
23619;BME280;18207;32.078;34.818;2023-02-23T05:41:23;101075.00;;;22.07;41.16
23619;BME280;18207;32.078;34.818;2023-02-23T05:43:55;101078.59;;;22.07;40.96
23619;BME280;18207;32.078;34.818;2023-02-23T05:46:26;101082.22;;;22.08;41.15
23619;BME280;18207;32.078;34.818;2023-02-23T05:49:00;101085.00;;;22.08;41.14
23619;BME280;18207;32.078;34.818;2023-02-23T05:51:34;101082.69;;;22.10;41.29
23619;BME280;18207;32.078;34.818;2023-02-23T05:54:07;101087.50;;;22.09;41.24
23619;BME280;18207;32.078;34.818;2023-02-23T05:56:38;101095.53;;;22.11;41.25
23619;BME280;18207;32.078;34.818;2023-02-23T05:59:08;101099.97;;;22.12;40.89
23619;BME280;18207;32.078;34.818;2023-02-23T06:01:40;101088.44;;;22.13;40.97
23619;BME280;18207;32.078;34.818;2023-02-23T06:04:13;101096.53;;;22.15;40.80
23619;BME280;18207;32.078;34.818;2023-02-23T06:06:44;101099.81;;;22.17;41.24
23619;BME280;18207;32.078;34.818;2023-02-23T06:09:15;101103.41;;;22.17;41.21
23619;BME280;18207;32.078;34.818;2023-02-23T06:11:45;101100.25;;;22.19;40.92
23619;BME280;18207;32.078;34.818;2023-02-23T06:14:16;101098.31;;;22.19;41.03
23619;BME280;18207;32.078;34.818;2023-02-23T06:16:46;101106.34;;;22.21;40.98
23619;BME280;18207;32.078;34.818;2023-02-23T06:19:19;101111.63;;;22.22;40.98
23619;BME280;18207;32.078;34.818;2023-02-23T06:21:51;101106.84;;;22.23;40.96
23619;BME280;18207;32.078;34.818;2023-02-23T06:24:22;101112.44;;;22.23;41.32
23619;BME280;18207;32.078;34.818;2023-02-23T06:26:52;101111.63;;;22.22;41.09
23619;BME280;18207;32.078;34.818;2023-02-23T06:29:24;101115.25;;;22.23;41.41
23619;BME280;18207;32.078;34.818;2023-02-23T06:31:54;101115.72;;;22.25;41.12
23619;BME280;18207;32.078;34.818;2023-02-23T06:34:29;101111.28;;;22.24;40.93
23619;BME280;18207;32.078;34.818;2023-02-23T06:37:01;101114.09;;;22.24;40.91
23619;BME280;18207;32.078;34.818;2023-02-23T06:39:31;101109.28;;;22.24;41.39
23619;BME280;18207;32.078;34.818;2023-02-23T06:42:02;101110.94;;;22.25;41.69
23619;BME280;18207;32.078;34.818;2023-02-23T06:44:32;101111.44;;;22.27;40.98
23619;BME280;18207;32.078;34.818;2023-02-23T06:47:04;101110.28;;;22.28;41.27
23619;BME280;18207;32.078;34.818;2023-02-23T06:49:37;101108.75;;;22.31;41.34
23619;BME280;18207;32.078;34.818;2023-02-23T06:52:09;101107.63;;;22.32;41.58
23619;BME280;18207;32.078;34.818;2023-02-23T06:54:41;101118.19;;;22.35;41.34
23619;BME280;18207;32.078;34.818;2023-02-23T06:57:12;101116.66;;;22.37;41.27
23619;BME280;18207;32.078;34.818;2023-02-23T06:59:43;101117.97;;;22.40;41.14
23619;BME280;18207;32.078;34.818;2023-02-23T07:02:14;101115.66;;;22.42;41.62
23619;BME280;18207;32.078;34.818;2023-02-23T07:04:45;101120.59;;;22.44;41.67
23619;BME280;18207;32.078;34.818;2023-02-23T07:07:16;101125.47;;;22.47;41.96
23619;BME280;18207;32.078;34.818;2023-02-23T07:09:47;101122.84;;;22.51;41.78
23619;BME280;18207;32.078;34.818;2023-02-23T07:12:17;101124.94;;;22.54;41.37
23619;BME280;18207;32.078;34.818;2023-02-23T07:14:48;101125.94;;;22.58;41.78
23619;BME280;18207;32.078;34.818;2023-02-23T07:17:18;101129.66;;;22.62;41.92
23619;BME280;18207;32.078;34.818;2023-02-23T07:19:51;101135.09;;;22.67;41.57
23619;BME280;18207;32.078;34.818;2023-02-23T07:22:21;101133.59;;;22.69;41.48
23619;BME280;18207;32.078;34.818;2023-02-23T07:24:54;101136.19;;;22.74;41.86
23619;BME280;18207;32.078;34.818;2023-02-23T07:27:25;101127.09;;;22.77;42.15
23619;BME280;18207;32.078;34.818;2023-02-23T07:29:56;101126.06;;;22.82;41.75
23619;BME280;18207;32.078;34.818;2023-02-23T07:32:28;101131.47;;;22.87;41.50
23619;BME280;18207;32.078;34.818;2023-02-23T07:35:05;101133.25;;;22.91;41.83
23619;BME280;18207;32.078;34.818;2023-02-23T07:37:35;101133.88;;;22.97;41.82
23619;BME280;18207;32.078;34.818;2023-02-23T07:40:08;101127.22;;;23.01;41.58
23619;BME280;18207;32.078;34.818;2023-02-23T07:42:38;101127.03;;;23.06;41.89
23619;BME280;18207;32.078;34.818;2023-02-23T07:45:10;101129.66;;;23.11;42.01
23619;BME280;18207;32.078;34.818;2023-02-23T07:47:40;101130.63;;;23.15;41.86
23619;BME280;18207;32.078;34.818;2023-02-23T07:50:14;101128.75;;;23.19;41.59
23619;BME280;18207;32.078;34.818;2023-02-23T07:52:44;101130.03;;;23.22;41.91
23619;BME280;18207;32.078;34.818;2023-02-23T07:55:15;101119.31;;;23.24;42.03
23619;BME280;18207;32.078;34.818;2023-02-23T07:57:45;101123.41;;;23.26;41.76
23619;BME280;18207;32.078;34.818;2023-02-23T08:00:17;101130.66;;;23.27;41.60
23619;BME280;18207;32.078;34.818;2023-02-23T08:02:48;101129.16;;;23.30;41.73
23619;BME280;18207;32.078;34.818;2023-02-23T08:05:22;101128.44;;;23.32;41.89
23619;BME280;18207;32.078;34.818;2023-02-23T08:07:53;101126.94;;;23.35;41.91
23619;BME280;18207;32.078;34.818;2023-02-23T08:10:24;101128.72;;;23.39;41.88
23619;BME280;18207;32.078;34.818;2023-02-23T08:12:56;101122.41;;;23.42;41.81
23619;BME280;18207;32.078;34.818;2023-02-23T08:15:27;101132.09;;;23.45;41.91
23619;BME280;18207;32.078;34.818;2023-02-23T08:17:58;101124.66;;;23.49;41.89
23619;BME280;18207;32.078;34.818;2023-02-23T08:20:34;101129.22;;;23.53;41.70
23619;BME280;18207;32.078;34.818;2023-02-23T08:23:04;101121.41;;;23.59;41.91
23619;BME280;18207;32.078;34.818;2023-02-23T08:25:38;101125.63;;;23.65;41.82
23619;BME280;18207;32.078;34.818;2023-02-23T08:28:11;101126.69;;;23.72;42.01
23619;BME280;18207;32.078;34.818;2023-02-23T08:30:42;101126.16;;;23.79;42.05
23619;BME280;18207;32.078;34.818;2023-02-23T08:33:12;101126.06;;;23.87;41.83
23619;BME280;18207;32.078;34.818;2023-02-23T08:35:43;101119.53;;;23.95;42.23
23619;BME280;18207;32.078;34.818;2023-02-23T08:38:15;101124.56;;;24.02;41.92
23619;BME280;18207;32.078;34.818;2023-02-23T08:40:46;101111.22;;;24.11;41.73
23619;BME280;18207;32.078;34.818;2023-02-23T08:43:17;101113.91;;;24.19;42.12
23619;BME280;18207;32.078;34.818;2023-02-23T08:45:48;101106.53;;;24.26;41.70
23619;BME280;18207;32.078;34.818;2023-02-23T08:48:20;101105.94;;;24.33;41.60
23619;BME280;18207;32.078;34.818;2023-02-23T08:50:58;101112.97;;;24.39;41.92
23619;BME280;18207;32.078;34.818;2023-02-23T08:53:29;101101.88;;;24.42;41.50
23619;BME280;18207;32.078;34.818;2023-02-23T08:56:24;101098.34;;;24.45;41.76
23619;BME280;18207;32.078;34.818;2023-02-23T08:58:57;101098.03;;;24.47;41.59
23619;BME280;18207;32.078;34.818;2023-02-23T09:01:29;101102.13;;;24.49;41.37
23619;BME280;18207;32.078;34.818;2023-02-23T09:04:00;101096.97;;;24.51;41.46
23619;BME280;18207;32.078;34.818;2023-02-23T09:06:35;101105.03;;;24.53;41.45
23619;BME280;18207;32.078;34.818;2023-02-23T09:09:06;101102.31;;;24.56;41.36
23619;BME280;18207;32.078;34.818;2023-02-23T09:11:37;101101.63;;;24.59;41.59
23619;BME280;18207;32.078;34.818;2023-02-23T09:14:08;101089.78;;;24.66;41.29
23619;BME280;18207;32.078;34.818;2023-02-23T09:16:39;101086.25;;;24.69;41.67
23619;BME280;18207;32.078;34.818;2023-02-23T09:19:16;101089.63;;;24.74;41.25
23619;BME280;18207;32.078;34.818;2023-02-23T09:21:49;101084.56;;;24.80;41.71
23619;BME280;18207;32.078;34.818;2023-02-23T09:24:21;101083.50;;;24.84;41.44
23619;BME280;18207;32.078;34.818;2023-02-23T09:26:53;101080.09;;;24.91;41.46
23619;BME280;18207;32.078;34.818;2023-02-23T09:29:24;101082.19;;;24.94;41.15
23619;BME280;18207;32.078;34.818;2023-02-23T09:31:54;101077.94;;;25.00;41.34
23619;BME280;18207;32.078;34.818;2023-02-23T09:34:25;101075.25;;;25.03;41.30
23619;BME280;18207;32.078;34.818;2023-02-23T09:37:00;101066.09;;;25.06;41.20
23619;BME280;18207;32.078;34.818;2023-02-23T09:39:32;101068.19;;;25.09;41.17
23619;BME280;18207;32.078;34.818;2023-02-23T09:42:31;101067.97;;;25.14;41.31
23619;BME280;18207;32.078;34.818;2023-02-23T09:45:16;101063.25;;;25.18;41.04
23619;BME280;18207;32.078;34.818;2023-02-23T09:48:07;101063.00;;;25.23;41.20
23619;BME280;18207;32.078;34.818;2023-02-23T09:50:49;101065.09;;;25.26;41.25
23619;BME280;18207;32.078;34.818;2023-02-23T09:53:37;101060.03;;;25.31;41.22
23619;BME280;18207;32.078;34.818;2023-02-23T09:56:28;101055.66;;;25.34;41.17
23619;BME280;18207;32.078;34.818;2023-02-23T09:59:04;101059.75;;;25.36;41.07
23619;BME280;18207;32.078;34.818;2023-02-23T10:02:04;101062.69;;;25.40;41.01
23619;BME280;18207;32.078;34.818;2023-02-23T10:04:43;101053.88;;;25.41;40.90
23619;BME280;18207;32.078;34.818;2023-02-23T10:07:24;101049.50;;;25.44;40.92
23619;BME280;18207;32.078;34.818;2023-02-23T10:10:19;101051.59;;;25.47;40.94
23619;BME280;18207;32.078;34.818;2023-02-23T10:13:03;101052.41;;;25.47;40.85
23619;BME280;18207;32.078;34.818;2023-02-23T10:15:43;101039.97;;;25.48;41.11
23619;BME280;18207;32.078;34.818;2023-02-23T10:18:29;101046.06;;;25.50;40.61
23619;BME280;18207;32.078;34.818;2023-02-23T10:21:20;101050.91;;;25.50;40.45
23619;BME280;18207;32.078;34.818;2023-02-23T10:23:59;101043.63;;;25.49;40.34
23619;BME280;18207;32.078;34.818;2023-02-23T10:26:41;101045.28;;;25.50;40.44
23619;BME280;18207;32.078;34.818;2023-02-23T10:29:25;101038.81;;;25.49;40.16
23619;BME280;18207;32.078;34.818;2023-02-23T10:32:02;101038.00;;;25.49;40.31
23619;BME280;18207;32.078;34.818;2023-02-23T10:34:35;101025.09;;;25.48;40.26
23619;BME280;18207;32.078;34.818;2023-02-23T10:37:11;101031.19;;;25.50;40.36
23619;BME280;18207;32.078;34.818;2023-02-23T10:39:43;101028.00;;;25.51;40.29
23619;BME280;18207;32.078;34.818;2023-02-23T10:42:26;101033.25;;;25.53;40.29
23619;BME280;18207;32.078;34.818;2023-02-23T10:45:05;101038.09;;;25.52;40.44
23619;BME280;18207;32.078;34.818;2023-02-23T10:47:58;101031.28;;;25.53;40.03
23619;BME280;18207;32.078;34.818;2023-02-23T10:50:42;101023.66;;;25.54;40.19
23619;BME280;18207;32.078;34.818;2023-02-23T10:53:22;101017.63;;;25.55;40.16
23619;BME280;18207;32.078;34.818;2023-02-23T10:56:07;101013.66;;;25.56;40.27
23619;BME280;18207;32.078;34.818;2023-02-23T10:58:44;101017.75;;;25.59;40.27
23619;BME280;18207;32.078;34.818;2023-02-23T11:01:32;101012.94;;;25.59;40.18
23619;BME280;18207;32.078;34.818;2023-02-23T11:04:20;101014.56;;;25.60;40.08
23619;BME280;18207;32.078;34.818;2023-02-23T11:07:07;101013.38;;;25.61;39.99
23619;BME280;18207;32.078;34.818;2023-02-23T11:09:38;101008.94;;;25.60;40.12
23619;BME280;18207;32.078;34.818;2023-02-23T11:12:23;101006.59;;;25.62;39.76
23619;BME280;18207;32.078;34.818;2023-02-23T11:15:27;101002.59;;;25.63;39.87
23619;BME280;18207;32.078;34.818;2023-02-23T11:18:25;100995.31;;;25.62;40.08
23619;BME280;18207;32.078;34.818;2023-02-23T11:21:09;100990.50;;;25.63;39.73
23619;BME280;18207;32.078;34.818;2023-02-23T11:23:45;100996.97;;;25.63;39.95
23619;BME280;18207;32.078;34.818;2023-02-23T11:26:41;100984.06;;;25.62;40.10
23619;BME280;18207;32.078;34.818;2023-02-23T11:29:24;100984.41;;;25.61;40.04
23619;BME280;18207;32.078;34.818;2023-02-23T11:31:58;100985.25;;;25.61;39.83
23619;BME280;18207;32.078;34.818;2023-02-23T11:34:37;100987.22;;;25.61;39.83
23619;BME280;18207;32.078;34.818;2023-02-23T11:37:20;100980.78;;;25.60;39.82
23619;BME280;18207;32.078;34.818;2023-02-23T11:40:02;100988.44;;;25.60;39.83
23619;BME280;18207;32.078;34.818;2023-02-23T11:42:53;100982.81;;;25.60;39.55
23619;BME280;18207;32.078;34.818;2023-02-23T11:45:31;100974.69;;;25.58;39.78
23619;BME280;18207;32.078;34.818;2023-02-23T11:48:21;100983.53;;;25.57;39.58
23619;BME280;18207;32.078;34.818;2023-02-23T11:50:56;100979.44;;;25.54;39.42
23619;BME280;18207;32.078;34.818;2023-02-23T11:53:33;100983.06;;;25.55;39.34
23619;BME280;18207;32.078;34.818;2023-02-23T11:56:09;100980.63;;;25.53;39.58
23619;BME280;18207;32.078;34.818;2023-02-23T11:58:46;100979.78;;;25.53;39.49
23619;BME280;18207;32.078;34.818;2023-02-23T12:01:34;100981.34;;;25.50;39.43
23619;BME280;18207;32.078;34.818;2023-02-23T12:04:23;100978.91;;;25.49;39.39
23619;BME280;18207;32.078;34.818;2023-02-23T12:07:37;100979.63;;;25.46;39.53
23619;BME280;18207;32.078;34.818;2023-02-23T12:10:18;100996.03;;;25.44;39.45
23619;BME280;18207;32.078;34.818;2023-02-23T12:13:04;100996.03;;;25.44;39.58
23619;BME280;18207;32.078;34.818;2023-02-23T12:15:52;100989.59;;;25.43;39.71
23619;BME280;18207;32.078;34.818;2023-02-23T12:18:51;100985.97;;;25.43;39.80
23619;BME280;18207;32.078;34.818;2023-02-23T12:21:33;100993.22;;;25.44;39.71
23619;BME280;18207;32.078;34.818;2023-02-23T12:24:25;100985.63;;;25.44;39.48
23619;BME280;18207;32.078;34.818;2023-02-23T12:27:06;100992.50;;;25.47;39.74
23619;BME280;18207;32.078;34.818;2023-02-23T12:30:00;100998.94;;;25.47;39.48
23619;BME280;18207;32.078;34.818;2023-02-23T12:32:46;101003.75;;;25.47;39.66
23619;BME280;18207;32.078;34.818;2023-02-23T12:35:26;100996.13;;;25.47;39.52
23619;BME280;18207;32.078;34.818;2023-02-23T12:38:14;100996.97;;;25.48;39.67
23619;BME280;18207;32.078;34.818;2023-02-23T12:40:48;101003.41;;;25.48;39.47
23619;BME280;18207;32.078;34.818;2023-02-23T12:43:32;101006.22;;;25.48;39.26
23619;BME280;18207;32.078;34.818;2023-02-23T12:46:11;100996.97;;;25.48;39.59
23619;BME280;18207;32.078;34.818;2023-02-23T12:48:58;101005.41;;;25.48;39.29
23619;BME280;18207;32.078;34.818;2023-02-23T12:51:36;101010.19;;;25.47;39.29
23619;BME280;18207;32.078;34.818;2023-02-23T12:54:13;101010.19;;;25.47;39.49
23619;BME280;18207;32.078;34.818;2023-02-23T12:56:56;101004.94;;;25.46;39.37
23619;BME280;18207;32.078;34.818;2023-02-23T13:06:34;101008.00;;;25.41;39.53
23619;BME280;18207;32.078;34.818;2023-02-23T13:09:31;101007.56;;;25.39;39.40
23619;BME280;18207;32.078;34.818;2023-02-23T13:15:26;101006.66;;;25.35;39.44
23619;BME280;18207;32.078;34.818;2023-02-23T13:18:06;101015.47;;;25.33;39.52
23619;BME280;18207;32.078;34.818;2023-02-23T13:20:47;101016.28;;;25.34;39.29
23619;BME280;18207;32.078;34.818;2023-02-23T13:23:30;101023.44;;;25.31;39.46
23619;BME280;18207;32.078;34.818;2023-02-23T13:26:19;101008.91;;;25.29;39.34
23619;BME280;18207;32.078;34.818;2023-02-23T13:29:02;101012.09;;;25.28;39.31
23619;BME280;18207;32.078;34.818;2023-02-23T13:31:36;101011.63;;;25.26;39.27
23619;BME280;18207;32.078;34.818;2023-02-23T13:34:14;101008.81;;;25.26;39.01
23619;BME280;18207;32.078;34.818;2023-02-23T13:36:53;101014.00;;;25.24;39.60
23619;BME280;18207;32.078;34.818;2023-02-23T13:39:44;101016.34;;;25.22;39.12
23619;BME280;18207;32.078;34.818;2023-02-23T13:42:41;101015.53;;;25.21;39.43
23619;BME280;18207;32.078;34.818;2023-02-23T13:45:44;101022.25;;;25.17;39.48
23619;BME280;18207;32.078;34.818;2023-02-23T13:48:39;101023.41;;;25.16;39.42
23619;BME280;18207;32.078;34.818;2023-02-23T13:51:34;101025.75;;;25.14;39.31
23619;BME280;18207;32.078;34.818;2023-02-23T13:54:23;101020.50;;;25.12;39.13